Embry Hills, Georgia
Current Conditions -  °F | °C
As of 11:53 AM on Friday 28 Nov 2014 (Local Time) from KFTY Reporting Station
Clear Clear  
Wind Chill: 36°   Ceiling: Unl
Heat Index: 41°   Visibility: 10mi
Dew Point: 19°   Wind: 7mph
Humidity: 41%   Direction: 290°WNW
Pressure: 30.38"   Gusts: NA
Location:  33.7629°N, 84.4225°W
Report Text: KFTY 281653Z 29006KT 10SM CLR 05/M07 A3038 RMK AO2 SLP291 T00501072
Loading
Personal Weather Stations






























Interactive Weather Map New forecast layout! Learn more

10-Day Weather Forecast

Advertisements
Track Severe Weather on mobile